Flight Track Log - Related Links

Times and Time Zones

All times are in EDT time to prevent confusion due to time zone crossing. See the N674DJ flight status page for this flight to view local times or setup timezone preferences in your user account.

Time Position Orientation Groundspeed Altitude Reporting Facility
EDT Latitude Longitude Course Direction KTS MPH feet Rate Location/Type
Wed 06:21:22 PM 40.8333 -74.1000 252° West 177 204 1,200  Level New York TRACON
Wed 06:22:16 PM 40.8167 -74.1667 252° West 235 270 1,500 1,263 Climbing New York TRACON
Wed 06:23:16 PM 40.8167 -74.2500 270° West 244 281 3,600 2,550 Climbing New York TRACON
Wed 06:24:16 PM 40.8167 -74.3500 270° West 261 300 6,600 2,950 Climbing New York TRACON
Wed 06:25:16 PM 40.9000 -74.3500 360° North 272 313 9,500 1,286 Climbing New York TRACON
Wed 06:27:46 PM 41.1094 -74.3456 North 319 367 11,100 971 Climbing New York Center
Wed 06:28:46 PM 41.1592 -74.4281 309° West 298 343 12,900 1,850 Climbing New York Center
Wed 06:29:46 PM 41.2117 -74.5411 302° West 311 358 14,800 1,700 Climbing New York Center
Wed 06:30:46 PM 41.2608 -74.6322 306° West 340 391 16,300 1,500 Climbing New York Center
Wed 06:31:46 PM 41.3281 -74.7411 309° West 347 399 17,800 1,300 Climbing New York Center
Wed 06:32:46 PM 41.3753 -74.8214 308° West 353 406 18,900 1,250 Climbing New York Center
Wed 06:33:46 PM 41.4422 -74.9333 309° West 353 406 20,300 1,350 Climbing New York Center
Wed 06:34:46 PM 41.5072 -75.0369 310° West 358 412 21,600 850 Climbing New York Center
Wed 06:35:46 PM 41.5722 -75.1436 309° West 358 412 22,000 200 Climbing New York Center
Wed 06:36:46 PM 41.6486 -75.2736 308° West 383 441 22,000  Level New York Center
Wed 06:37:46 PM 41.7211 -75.3925 309° West 403 464 22,000  Level New York Center
Wed 06:38:46 PM 41.7892 -75.5086 308° West 408 470 22,000  Level New York Center
Wed 06:39:46 PM 41.8575 -75.6219 309° West 408 470 22,000  Level New York Center
Wed 06:40:46 PM 41.9256 -75.7383 308° West 408 470 22,000 -100 Level New York Center
Wed 06:41:46 PM 41.9917 -75.8494 309° West 398 458 21,800 -900 Descending New York Center
Wed 06:42:46 PM 42.0556 -75.9633 307° West 393 452 20,200 -1,850 Descending New York Center
Wed 06:43:46 PM 42.1281 -76.0667 313° West 387 445 18,100 -2,000 Descending New York Center
Wed 06:44:46 PM 42.2194 -76.1189 337° Northwest 357 411 16,200 -2,015 Descending New York Center
Wed 06:46:03 PM 42.3511 -76.1181 360° North 367 422 13,500 -2,087 Descending Boston Center
Wed 06:47:04 PM 42.4494 -76.1069 North 354 407 11,400 -1,293 Descending Boston Center
Wed 06:47:59 PM 42.5333 -76.0978 North 333 383 11,000 -1,034 Descending Boston Center
Wed 06:49:00 PM 42.6192 -76.0858 North 307 353 9,400 -1,734 Descending Boston Center
Wed 06:50:07 PM 42.6986 -76.0736 North 261 300 7,300 -1,937 Descending Boston Center
Wed 06:51:07 PM 42.7719 -76.0636 North 250 288 5,300 -1,900 Descending Boston Center
Wed 06:52:07 PM 42.8453 -76.0539 North 245 282 3,500 -893 Descending Boston Center
Wed 06:53:08 PM 42.9039 -76.0458 North 216 249 3,500 -417 Level Boston Center
Wed 06:54:02 PM 42.9542 -76.0403 North 195 224 2,700 -783 Descending Boston Center
Wed 06:55:03 PM 43.0103 -76.0436 358° North 186 214 2,000 -496 Descending Boston Center
Wed 06:56:03 PM 43.0519 -76.0489 355° North 154 177 1,700 -397 Descending Boston Center
Wed 06:57:04 PM 43.0931 -76.0628 346° North 146 168 1,200 -492 Descending Boston Center

Login

Don't have an account? Register now (free) for customized features, flight alerts, and more!